• Join FlightAware (Why Join?)
  • Login
  • US Flag 
06:41AM EDT


 

Airport Tracker/Info


-or-


 

Live Flight TrackerFlight Track Log ✈ N529JB ✈ 13-May-2012 ✈ KFLL - KBOS

Flight Track Log - Related Links

Times and Time Zones

All times are in EDT time to prevent confusion due to time zone crossing. See the N529JB flight status page for this flight to view local times or setup timezone preferences in your user account.

Time Position Orientation Groundspeed Altitude Reporting Facility
EDT Latitude Longitude Course Direction KTS MPH feet Rate Location/Type
08:08AM 26.0750 -80.1389 69° East 154 177 700  Level Miami Center
08:14AM 26.2172 -79.7283 54° Northeast 313 360 11,300 1,920 Climbing Miami Center
08:15AM 26.2817 -79.6303 54° Northeast 362 417 13,300 1,860 Climbing Miami Center
08:16AM 26.3464 -79.5297 53° Northeast 398 458 15,100 1,800 Climbing Miami Center
08:17AM 26.4172 -79.4247 38° Northeast 410 472 16,900 1,320 Climbing Miami Center
08:18AM 26.5083 -79.3456 20° North 408 470 17,800 1,200 Climbing Miami Center
08:19AM 26.6261 -79.2967 21° North 424 488 19,400 1,380 Climbing Miami Center
08:20AM 26.7439 -79.2458 21° North 431 496 20,600 1,260 Climbing Miami Center
08:21AM 26.8639 -79.1947 23° Northeast 444 511 22,000 1,380 Climbing Miami Center
08:22AM 26.9817 -79.1386 21° North 454 522 23,400 1,140 Climbing Miami Center
08:23AM 27.1058 -79.0850 21° North 460 529 24,300 1,080 Climbing Miami Center
08:24AM 27.2278 -79.0314 22° Northeast 471 542 25,600 1,140 Climbing Miami Center
08:25AM 27.3539 -78.9753 15° North 480 552 26,600 840 Climbing Miami Center
08:26AM 27.4714 -78.9400 North 474 545 27,300 1,140 Climbing Miami Center
08:27AM 27.6156 -78.9192 North 473 544 28,900 840 Climbing Miami Center
08:28AM 27.7475 -78.9028 North 473 544 29,000  Climbing Miami Center
08:29AM 27.8833 -78.8842 North 488 562 29,000  Level Miami Center
08:30AM 28.0006 -78.8672 North 480 552 29,000  Level Miami Center
08:31AM 28.1322 -78.8483 North 480 552 29,000 -60 Level Miami Center
08:32AM 28.2642 -78.8319 North 486 559 28,900  Descending Miami Center
08:33AM 28.3981 -78.8131 North 481 554 29,000  Climbing Miami Center
08:34AM 28.5339 -78.7942 North 481 554 29,000 -60 Level Miami Center
08:35AM 28.6719 -78.7753 North 487 560 28,900  Descending Miami Center
08:36AM 28.8017 -78.7536 North 487 560 29,000  Climbing Miami Center
08:37AM 28.9375 -78.7347 North 482 555 29,000  Level Miami Center
08:38AM 29.0692 -78.7156 North 482 555 29,000  Level Miami Center
08:39AM 29.2050 -78.6964 North 482 555 29,000 -60 Level Miami Center
08:40AM 29.3386 -78.6772 North 482 555 28,900  Descending Miami Center
08:42AM 29.6278 -78.6400 North 505 581 29,000  Climbing Jacksonville Center
08:43AM 29.7564 -78.6153 North 490 564 29,000  Level Jacksonville Center
08:44AM 29.8958 -78.5997 North 485 558 29,000  Level Jacksonville Center
08:45AM 30.0286 -78.5794 North 484 557 29,000  Level Jacksonville Center
08:46AM 30.1658 -78.5611 North 477 549 29,000  Level Jacksonville Center
08:47AM 30.2819 -78.5414 North 463 533 29,000  Level Jacksonville Center
08:48AM 30.4253 -78.5206 North 468 539 29,000  Level Jacksonville Center
08:49AM 30.5622 -78.4975 12° North 476 548 29,000  Level Jacksonville Center
08:50AM 30.6969 -78.4647 19° North 490 564 29,000  Level Jacksonville Center
08:51AM 30.8203 -78.4153 17° North 485 558 29,000  Level Jacksonville Center
08:52AM 30.9461 -78.3706 16° North 485 558 29,000 -60 Level Jacksonville Center
08:53AM 31.0986 -78.3197 16° North 535 616 28,900 -60 Descending Jacksonville Center
08:54AM 31.2100 -78.2825 17° North 489 563 28,900  Level Jacksonville Center
08:55AM 31.3400 -78.2372 16° North 483 556 29,000  Climbing Jacksonville Center
08:56AM 31.4739 -78.1917 17° North 488 562 29,000 -60 Level Jacksonville Center
08:57AM 31.6039 -78.1461 18° North 488 562 28,900 -60 Descending Jacksonville Center
08:58AM 31.7333 -78.0978 18° North 488 562 28,900  Level Jacksonville Center
08:59AM 31.8650 -78.0469 16° North 488 562 28,900  Level Jacksonville Center
09:00AM 31.9969 -78.0033 17° North 488 562 28,900  Level Jacksonville Center
09:01AM 32.1308 -77.9544 17° North 488 562 29,000  Climbing Jacksonville Center
09:02AM 32.2625 -77.9056 16° North 488 562 29,000  Level Jacksonville Center
09:03AM 32.3983 -77.8589 19° North 493 567 29,000 -60 Level Jacksonville Center
09:04AM 32.5297 -77.8047 16° North 493 567 28,900  Descending Jacksonville Center
09:05AM 32.6636 -77.7603 18° North 493 567 29,000  Climbing Jacksonville Center
09:06AM 32.7950 -77.7083 18° North 493 567 28,900 -60 Descending Jacksonville Center
09:07AM 32.9267 -77.6586 17° North 493 567 28,900  Level Jacksonville Center
09:08AM 33.0581 -77.6114 17° North 488 562 28,900  Level Jacksonville Center
09:10AM 33.3514 -77.5008 17° North 495 570 29,000  Climbing Washington Center
09:11AM 33.4814 -77.4542 17° North 495 570 28,900 -60 Descending Washington Center
09:12AM 33.6136 -77.4047 18° North 495 570 28,900  Level Washington Center
09:13AM 33.7458 -77.3525 17° North 495 570 29,000  Climbing Washington Center
09:14AM 33.8800 -77.3031 17° North 495 570 29,000 -60 Level Washington Center
09:15AM 34.0122 -77.2556 18° North 495 570 28,900 -60 Descending Washington Center
09:16AM 34.1464 -77.2031 17° North 495 570 28,900  Level Washington Center
09:17AM 34.2742 -77.1553 18° North 495 570 29,000  Climbing Washington Center
09:18AM 34.4042 -77.1047 17° North 495 570 28,900 -60 Descending Washington Center
09:19AM 34.5364 -77.0544 18° North 495 570 28,900  Level Washington Center
09:20AM 34.6811 -76.9989 17° North 488 562 29,000  Climbing Washington Center
09:21AM 34.8108 -76.9506 17° North 488 562 29,000  Level Washington Center
09:22AM 34.9450 -76.8994 18° North 488 562 29,000  Level Washington Center
09:23AM 35.0750 -76.8483 19° North 488 562 29,000  Level Washington Center
09:24AM 35.2069 -76.7919 17° North 489 563 29,000  Level Washington Center
09:25AM 35.3431 -76.7406 17° North 489 563 29,000  Level Washington Center
09:26AM 35.4561 -76.6986 19° North 489 563 29,100 600 Climbing Washington Center
09:27AM 35.5861 -76.6444 18° North 489 563 30,300 900 Climbing Washington Center
09:28AM 35.7178 -76.5922 17° North 489 563 31,000 300 Climbing Washington Center
09:29AM 35.8519 -76.5403 18° North 489 563 31,000  Level Washington Center
09:30AM 35.9817 -76.4878 18° North 489 563 31,000  Level Washington Center
09:31AM 36.1133 -76.4353 18° North 489 563 31,000 -60 Level Washington Center
09:32AM 36.2453 -76.3828 18° North 489 563 30,900  Descending Washington Center
09:33AM 36.3769 -76.3297 18° North 489 563 31,000  Climbing Washington Center
09:34AM 36.5086 -76.2767 18° North 489 563 31,000  Level Washington Center
09:35AM 36.6425 -76.2236 20° North 489 563 31,000  Level Washington Center
09:36AM 36.7847 -76.1600 18° North 489 563 31,000  Level Washington Center
09:37AM 36.9144 -76.1061 16° North 489 563 31,000  Level Washington Center
09:38AM 37.0522 -76.0550 18° North 489 563 31,000  Level Washington Center
09:39AM 37.1839 -76.0011 27° Northeast 495 570 31,000 -60 Level Washington Center
09:40AM 37.3092 -75.9208 26° Northeast 500 575 30,900 -60 Descending Washington Center
09:41AM 37.4367 -75.8428 26° Northeast 500 575 30,900  Level Washington Center
09:42AM 37.5619 -75.7672 26° Northeast 500 575 31,000  Climbing Washington Center
09:43AM 37.6914 -75.6889 27° Northeast 500 575 31,000  Level Washington Center
09:44AM 37.8144 -75.6103 27° Northeast 500 575 31,000 -60 Level Washington Center
09:45AM 37.9394 -75.5311 26° Northeast 500 575 30,900 -60 Descending Washington Center
09:46AM 38.0647 -75.4547 25° Northeast 500 575 30,900  Level Washington Center
09:47AM 38.1917 -75.3778 27° Northeast 500 575 31,000  Climbing Washington Center
09:48AM 38.2917 -75.3139 28° Northeast 500 575 30,900 -60 Descending Washington Center
09:49AM 38.4269 -75.2233 26° Northeast 500 575 30,900  Level Washington Center
09:50AM 38.5539 -75.1456 27° Northeast 500 575 30,900  Level Washington Center
09:51AM 38.6786 -75.0625 26° Northeast 495 570 31,000  Climbing Washington Center
09:52AM 38.8053 -74.9842 27° Northeast 495 570 30,900  Descending Washington Center
09:53AM 38.9319 -74.9006 28° Northeast 495 570 31,000  Climbing Washington Center
09:54AM 39.0567 -74.8164 26° Northeast 500 575 31,000 -60 Level Washington Center
09:55AM 39.1875 -74.7347 26° Northeast 500 575 30,900 -60 Descending Washington Center
09:56AM 39.3119 -74.6553 28° Northeast 505 581 30,900  Level Washington Center
09:57AM 39.4361 -74.5706 26° Northeast 505 581 30,900  Level Washington Center
09:58AM 39.5842 -74.4772 28° Northeast 522 601 31,000  Climbing New York Center
09:59AM 39.6908 -74.4047 27° Northeast 513 590 30,900  Descending New York Center
10:00AM 39.8142 -74.3219 27° Northeast 503 579 31,000  Climbing New York Center
10:01AM 39.9375 -74.2417 27° Northeast 503 579 30,900 -60 Descending New York Center
10:02AM 40.0567 -74.1608 26° Northeast 498 573 30,900  Level New York Center
10:03AM 40.1839 -74.0800 35° Northeast 493 567 30,900 -540 Level New York Center
10:04AM 40.2972 -73.9767 35° Northeast 493 567 29,900 -1,080 Descending New York Center
10:05AM 40.4106 -73.8731 36° Northeast 499 574 28,800 -1,200 Descending New York Center
10:07AM 40.6603 -73.6356 36° Northeast 502 578 26,200 -1,200 Descending Boston Center
10:08AM 40.7675 -73.5308 39° Northeast 497 572 25,000 -1,140 Descending Boston Center
10:09AM 40.8728 -73.4200 49° Northeast 492 566 24,000 -900 Descending Boston Center
10:10AM 40.9592 -73.2867 47° Northeast 472 543 23,200 -540 Descending Boston Center
10:11AM 41.0561 -73.1503 49° Northeast 484 557 23,000 -120 Descending Boston Center
10:12AM 41.1464 -73.0106 52° Northeast 495 570 23,000  Level Boston Center
10:13AM 41.2347 -72.8597 61° Northeast 505 581 23,000  Level Boston Center
10:14AM 41.3017 -72.6997 64° Northeast 505 581 23,000  Level Boston Center
10:15AM 41.3625 -72.5314 64° Northeast 500 575 23,000  Level Boston Center
10:16AM 41.4231 -72.3625 63° Northeast 495 570 23,000 -600 Level Boston Center
10:17AM 41.4872 -72.1961 65° Northeast 495 570 21,800 -1,500 Descending Boston Center
10:18AM 41.5453 -72.0297 67° East 495 570 20,000 -1,800 Descending Boston Center
10:19AM 41.6028 -71.8489 69° East 481 554 18,200 -1,680 Descending Boston Center
10:20AM 41.6497 -71.6872 68° East 466 536 16,700 -1,500 Descending Boston Center
10:21AM 41.6925 -71.5450 66° East 460 529 15,200 -1,620 Descending Boston Center
10:22AM 41.7472 -71.3828 58° Northeast 440 506 13,500 -1,320 Descending Boston Center
10:23AM 41.8025 -71.2622 58° Northeast 421 484 12,600 -1,260 Descending Boston Center
10:24AM 41.8633 -71.1300 61° Northeast 385 443 11,000 -1,140 Descending Boston Center
10:25AM 41.9039 -71.0314 62° Northeast 352 405 10,400 -660 Descending Boston Center
10:26AM 41.9483 -70.9189 61° Northeast 315 362 9,700 -660 Descending Boston Center
10:27AM 41.9847 -70.8314 56° Northeast 310 357 9,100 -600 Descending Boston Center
10:28AM 42.0311 -70.7381 46° Northeast 305 351 8,500 -600 Descending Boston Center
10:29AM 42.0903 -70.6553 North 299 344 7,900 -1,020 Descending Boston Center
10:30AM 42.1675 -70.6531 348° North 261 300 6,500 -1,500 Descending Boston Center
10:31AM 42.2450 -70.6761 350° North 261 300 4,900 -1,560 Descending Boston Center
10:32AM 42.3203 -70.6936 310° West 261 300 3,400 -1,200 Descending Boston Center
10:33AM 42.3608 -70.7597 285° West 248 285 2,500 -780 Descending Boston Center
10:34AM 42.3767 -70.8408 282° West 204 235 1,900 -720 Descending Boston Center
10:35AM 42.3833 -70.8833 236° Southwest 165 190 1,300 -660 Descending Boston TRACON
10:36AM 42.3667 -70.9167 270° West 133 153 900 -660 Descending Boston TRACON
10:37AM 42.3667 -70.9833 270° West 134 154 200 -720 Descending Boston TRACON